sensor_id;sensor_type;location;lat;lon;timestamp;P1;durP1;ratioP1;P2;durP2;ratioP2
22851;SDS011;11592;45.460;9.240;2023-02-15T00:01:42;105.93;;;41.05;;
22851;SDS011;11592;45.460;9.240;2023-02-15T00:04:09;114.60;;;43.08;;
22851;SDS011;11592;45.460;9.240;2023-02-15T00:06:40;104.00;;;43.00;;
22851;SDS011;11592;45.460;9.240;2023-02-15T00:09:08;108.03;;;42.42;;
22851;SDS011;11592;45.460;9.240;2023-02-15T00:11:35;101.85;;;41.90;;
22851;SDS011;11592;45.460;9.240;2023-02-15T00:14:13;105.63;;;41.00;;
22851;SDS011;11592;45.460;9.240;2023-02-15T00:16:46;96.88;;;40.60;;
22851;SDS011;11592;45.460;9.240;2023-02-15T00:19:14;104.38;;;40.42;;
22851;SDS011;11592;45.460;9.240;2023-02-15T00:21:43;106.63;;;42.03;;
22851;SDS011;11592;45.460;9.240;2023-02-15T00:24:12;105.65;;;41.65;;
22851;SDS011;11592;45.460;9.240;2023-02-15T00:26:40;108.45;;;43.17;;
22851;SDS011;11592;45.460;9.240;2023-02-15T00:29:08;105.65;;;42.88;;
22851;SDS011;11592;45.460;9.240;2023-02-15T00:31:36;104.72;;;41.08;;
22851;SDS011;11592;45.460;9.240;2023-02-15T00:34:04;99.55;;;41.38;;
22851;SDS011;11592;45.460;9.240;2023-02-15T00:36:39;106.07;;;42.38;;
22851;SDS011;11592;45.460;9.240;2023-02-15T00:39:06;99.40;;;39.15;;
22851;SDS011;11592;45.460;9.240;2023-02-15T00:41:33;110.38;;;40.78;;
22851;SDS011;11592;45.460;9.240;2023-02-15T00:44:00;97.53;;;40.90;;
22851;SDS011;11592;45.460;9.240;2023-02-15T00:46:27;96.68;;;41.42;;
22851;SDS011;11592;45.460;9.240;2023-02-15T00:48:54;100.35;;;39.80;;
22851;SDS011;11592;45.460;9.240;2023-02-15T00:51:21;101.72;;;40.00;;
22851;SDS011;11592;45.460;9.240;2023-02-15T00:53:48;97.30;;;38.38;;
22851;SDS011;11592;45.460;9.240;2023-02-15T00:56:15;102.88;;;38.90;;
22851;SDS011;11592;45.460;9.240;2023-02-15T00:58:42;105.40;;;41.50;;
22851;SDS011;11592;45.460;9.240;2023-02-15T01:01:13;98.15;;;38.55;;
22851;SDS011;11592;45.460;9.240;2023-02-15T01:03:42;93.20;;;38.13;;
22851;SDS011;11592;45.460;9.240;2023-02-15T01:09:13;93.03;;;36.90;;
22851;SDS011;11592;45.460;9.240;2023-02-15T01:11:40;90.63;;;38.50;;
22851;SDS011;11592;45.460;9.240;2023-02-15T01:14:06;91.82;;;36.78;;
22851;SDS011;11592;45.460;9.240;2023-02-15T01:16:33;95.40;;;39.85;;
22851;SDS011;11592;45.460;9.240;2023-02-15T01:19:00;93.28;;;37.53;;
22851;SDS011;11592;45.460;9.240;2023-02-15T01:21:28;92.78;;;36.38;;
22851;SDS011;11592;45.460;9.240;2023-02-15T01:23:55;97.70;;;36.17;;
22851;SDS011;11592;45.460;9.240;2023-02-15T01:26:22;89.70;;;37.47;;
22851;SDS011;11592;45.460;9.240;2023-02-15T01:28:49;88.43;;;36.88;;
22851;SDS011;11592;45.460;9.240;2023-02-15T01:31:17;89.38;;;37.10;;
22851;SDS011;11592;45.460;9.240;2023-02-15T01:33:46;95.00;;;37.70;;
22851;SDS011;11592;45.460;9.240;2023-02-15T01:36:13;99.90;;;39.00;;
22851;SDS011;11592;45.460;9.240;2023-02-15T01:38:40;102.25;;;38.83;;
22851;SDS011;11592;45.460;9.240;2023-02-15T01:41:08;90.55;;;38.00;;
22851;SDS011;11592;45.460;9.240;2023-02-15T01:43:50;92.93;;;39.60;;
22851;SDS011;11592;45.460;9.240;2023-02-15T01:46:32;92.63;;;38.53;;
22851;SDS011;11592;45.460;9.240;2023-02-15T01:49:11;92.03;;;38.75;;
22851;SDS011;11592;45.460;9.240;2023-02-15T01:51:43;93.60;;;39.83;;
22851;SDS011;11592;45.460;9.240;2023-02-15T01:56:51;98.28;;;40.33;;
22851;SDS011;11592;45.460;9.240;2023-02-15T01:59:21;95.38;;;38.35;;
22851;SDS011;11592;45.460;9.240;2023-02-15T02:01:51;97.18;;;40.92;;
22851;SDS011;11592;45.460;9.240;2023-02-15T02:04:25;101.47;;;39.97;;
22851;SDS011;11592;45.460;9.240;2023-02-15T02:06:58;98.50;;;39.83;;
22851;SDS011;11592;45.460;9.240;2023-02-15T02:09:26;93.43;;;39.75;;
22851;SDS011;11592;45.460;9.240;2023-02-15T02:11:53;106.75;;;42.65;;
22851;SDS011;11592;45.460;9.240;2023-02-15T02:14:20;98.32;;;40.88;;
22851;SDS011;11592;45.460;9.240;2023-02-15T02:16:52;89.80;;;38.80;;
22851;SDS011;11592;45.460;9.240;2023-02-15T02:19:44;97.95;;;41.72;;
22851;SDS011;11592;45.460;9.240;2023-02-15T02:33:32;100.80;;;40.47;;
22851;SDS011;11592;45.460;9.240;2023-02-15T02:38:52;94.80;;;40.13;;
22851;SDS011;11592;45.460;9.240;2023-02-15T02:46:59;87.97;;;39.45;;
22851;SDS011;11592;45.460;9.240;2023-02-15T02:49:36;98.30;;;40.03;;
22851;SDS011;11592;45.460;9.240;2023-02-15T02:52:06;91.95;;;38.67;;
22851;SDS011;11592;45.460;9.240;2023-02-15T02:54:52;101.32;;;41.20;;
22851;SDS011;11592;45.460;9.240;2023-02-15T02:57:20;91.40;;;39.13;;
22851;SDS011;11592;45.460;9.240;2023-02-15T02:59:48;105.50;;;41.28;;
22851;SDS011;11592;45.460;9.240;2023-02-15T03:02:19;92.03;;;38.83;;
22851;SDS011;11592;45.460;9.240;2023-02-15T03:04:55;97.60;;;40.47;;
22851;SDS011;11592;45.460;9.240;2023-02-15T03:07:30;93.20;;;40.00;;
22851;SDS011;11592;45.460;9.240;2023-02-15T03:09:58;98.88;;;40.85;;
22851;SDS011;11592;45.460;9.240;2023-02-15T03:12:28;106.43;;;41.10;;
22851;SDS011;11592;45.460;9.240;2023-02-15T03:14:57;95.93;;;39.65;;
22851;SDS011;11592;45.460;9.240;2023-02-15T03:17:47;98.93;;;40.97;;
22851;SDS011;11592;45.460;9.240;2023-02-15T03:20:24;92.53;;;38.47;;
22851;SDS011;11592;45.460;9.240;2023-02-15T03:23:03;89.10;;;38.85;;
22851;SDS011;11592;45.460;9.240;2023-02-15T03:25:39;93.28;;;39.53;;
22851;SDS011;11592;45.460;9.240;2023-02-15T03:28:15;95.25;;;39.10;;
22851;SDS011;11592;45.460;9.240;2023-02-15T03:30:51;85.15;;;37.85;;
22851;SDS011;11592;45.460;9.240;2023-02-15T03:33:21;95.30;;;41.33;;
22851;SDS011;11592;45.460;9.240;2023-02-15T03:35:54;101.20;;;40.33;;
22851;SDS011;11592;45.460;9.240;2023-02-15T03:38:36;98.57;;;39.13;;
22851;SDS011;11592;45.460;9.240;2023-02-15T03:41:17;88.90;;;37.20;;
22851;SDS011;11592;45.460;9.240;2023-02-15T03:43:53;95.75;;;36.97;;
22851;SDS011;11592;45.460;9.240;2023-02-15T03:46:36;89.45;;;38.35;;
22851;SDS011;11592;45.460;9.240;2023-02-15T03:49:07;89.55;;;39.13;;
22851;SDS011;11592;45.460;9.240;2023-02-15T03:52:00;95.13;;;38.65;;
22851;SDS011;11592;45.460;9.240;2023-02-15T03:54:31;92.05;;;38.63;;
22851;SDS011;11592;45.460;9.240;2023-02-15T03:57:14;86.75;;;36.67;;
22851;SDS011;11592;45.460;9.240;2023-02-15T04:00:00;85.32;;;37.40;;
22851;SDS011;11592;45.460;9.240;2023-02-15T04:03:11;87.15;;;35.75;;
22851;SDS011;11592;45.460;9.240;2023-02-15T04:05:47;89.05;;;37.67;;
22851;SDS011;11592;45.460;9.240;2023-02-15T04:08:14;88.45;;;38.88;;
22851;SDS011;11592;45.460;9.240;2023-02-15T04:10:41;87.03;;;36.33;;
22851;SDS011;11592;45.460;9.240;2023-02-15T04:13:20;89.85;;;37.72;;
22851;SDS011;11592;45.460;9.240;2023-02-15T04:15:48;88.32;;;36.28;;
22851;SDS011;11592;45.460;9.240;2023-02-15T04:21:23;89.40;;;36.75;;
22851;SDS011;11592;45.460;9.240;2023-02-15T04:24:11;82.68;;;34.80;;
22851;SDS011;11592;45.460;9.240;2023-02-15T04:29:24;84.43;;;33.92;;
22851;SDS011;11592;45.460;9.240;2023-02-15T04:31:52;84.53;;;35.88;;
22851;SDS011;11592;45.460;9.240;2023-02-15T04:34:20;88.07;;;36.72;;
22851;SDS011;11592;45.460;9.240;2023-02-15T04:36:47;90.53;;;37.17;;
22851;SDS011;11592;45.460;9.240;2023-02-15T04:39:16;84.93;;;36.83;;
22851;SDS011;11592;45.460;9.240;2023-02-15T04:41:44;89.90;;;37.63;;
22851;SDS011;11592;45.460;9.240;2023-02-15T04:44:11;84.85;;;35.58;;
22851;SDS011;11592;45.460;9.240;2023-02-15T04:46:38;77.75;;;33.63;;
22851;SDS011;11592;45.460;9.240;2023-02-15T04:49:05;81.40;;;36.35;;
22851;SDS011;11592;45.460;9.240;2023-02-15T04:51:31;84.50;;;36.25;;
22851;SDS011;11592;45.460;9.240;2023-02-15T04:53:58;87.47;;;38.08;;
22851;SDS011;11592;45.460;9.240;2023-02-15T04:56:25;87.35;;;36.88;;
22851;SDS011;11592;45.460;9.240;2023-02-15T04:58:52;87.00;;;36.65;;
22851;SDS011;11592;45.460;9.240;2023-02-15T05:01:18;76.25;;;35.45;;
22851;SDS011;11592;45.460;9.240;2023-02-15T05:03:45;87.28;;;36.00;;
22851;SDS011;11592;45.460;9.240;2023-02-15T05:06:12;83.90;;;35.20;;
22851;SDS011;11592;45.460;9.240;2023-02-15T05:13:06;83.97;;;36.28;;
22851;SDS011;11592;45.460;9.240;2023-02-15T05:19:17;90.03;;;36.55;;
22851;SDS011;11592;45.460;9.240;2023-02-15T05:21:44;87.78;;;35.25;;
22851;SDS011;11592;45.460;9.240;2023-02-15T05:24:11;79.72;;;34.40;;
22851;SDS011;11592;45.460;9.240;2023-02-15T05:26:57;84.53;;;35.22;;
22851;SDS011;11592;45.460;9.240;2023-02-15T05:29:42;87.40;;;37.13;;
22851;SDS011;11592;45.460;9.240;2023-02-15T05:32:10;88.55;;;36.40;;
22851;SDS011;11592;45.460;9.240;2023-02-15T05:34:39;79.10;;;34.88;;
22851;SDS011;11592;45.460;9.240;2023-02-15T05:37:06;81.38;;;35.35;;
22851;SDS011;11592;45.460;9.240;2023-02-15T05:39:33;85.75;;;37.13;;
22851;SDS011;11592;45.460;9.240;2023-02-15T05:42:00;82.15;;;35.45;;
22851;SDS011;11592;45.460;9.240;2023-02-15T05:44:27;81.55;;;35.22;;
22851;SDS011;11592;45.460;9.240;2023-02-15T05:46:54;72.95;;;34.70;;
22851;SDS011;11592;45.460;9.240;2023-02-15T05:49:21;81.72;;;34.85;;
22851;SDS011;11592;45.460;9.240;2023-02-15T05:51:48;79.25;;;33.83;;
22851;SDS011;11592;45.460;9.240;2023-02-15T05:54:15;79.32;;;34.63;;
22851;SDS011;11592;45.460;9.240;2023-02-15T05:56:42;80.43;;;34.90;;
22851;SDS011;11592;45.460;9.240;2023-02-15T05:59:09;83.45;;;36.20;;
22851;SDS011;11592;45.460;9.240;2023-02-15T06:01:35;75.70;;;33.15;;
22851;SDS011;11592;45.460;9.240;2023-02-15T06:04:02;80.60;;;33.85;;
22851;SDS011;11592;45.460;9.240;2023-02-15T06:06:29;74.25;;;32.45;;
22851;SDS011;11592;45.460;9.240;2023-02-15T06:08:56;83.90;;;32.83;;
22851;SDS011;11592;45.460;9.240;2023-02-15T06:11:22;77.53;;;33.78;;
22851;SDS011;11592;45.460;9.240;2023-02-15T06:13:49;84.32;;;34.40;;
22851;SDS011;11592;45.460;9.240;2023-02-15T06:16:16;82.65;;;35.08;;
22851;SDS011;11592;45.460;9.240;2023-02-15T06:18:43;84.95;;;35.03;;
22851;SDS011;11592;45.460;9.240;2023-02-15T06:21:10;77.35;;;33.53;;
22851;SDS011;11592;45.460;9.240;2023-02-15T06:23:37;76.95;;;34.92;;
22851;SDS011;11592;45.460;9.240;2023-02-15T06:26:04;75.22;;;33.78;;
22851;SDS011;11592;45.460;9.240;2023-02-15T06:28:31;82.53;;;35.70;;
22851;SDS011;11592;45.460;9.240;2023-02-15T06:30:58;82.20;;;34.40;;
22851;SDS011;11592;45.460;9.240;2023-02-15T06:33:25;77.88;;;34.78;;
22851;SDS011;11592;45.460;9.240;2023-02-15T06:35:52;81.45;;;34.55;;
22851;SDS011;11592;45.460;9.240;2023-02-15T06:38:18;76.82;;;35.67;;
22851;SDS011;11592;45.460;9.240;2023-02-15T06:40:46;81.75;;;34.25;;
22851;SDS011;11592;45.460;9.240;2023-02-15T06:43:42;82.85;;;35.70;;
22851;SDS011;11592;45.460;9.240;2023-02-15T06:46:09;81.53;;;33.17;;
22851;SDS011;11592;45.460;9.240;2023-02-15T06:48:35;74.57;;;34.85;;
22851;SDS011;11592;45.460;9.240;2023-02-15T06:51:02;77.68;;;33.53;;
22851;SDS011;11592;45.460;9.240;2023-02-15T06:53:29;73.28;;;32.03;;
22851;SDS011;11592;45.460;9.240;2023-02-15T06:56:03;78.82;;;32.70;;
22851;SDS011;11592;45.460;9.240;2023-02-15T06:58:32;83.18;;;34.22;;
22851;SDS011;11592;45.460;9.240;2023-02-15T07:00:59;85.32;;;35.13;;
22851;SDS011;11592;45.460;9.240;2023-02-15T07:03:26;88.75;;;36.88;;
22851;SDS011;11592;45.460;9.240;2023-02-15T07:05:57;78.93;;;34.60;;
22851;SDS011;11592;45.460;9.240;2023-02-15T07:08:27;82.13;;;34.95;;
22851;SDS011;11592;45.460;9.240;2023-02-15T07:10:55;82.05;;;34.85;;
22851;SDS011;11592;45.460;9.240;2023-02-15T07:13:45;79.22;;;34.67;;
22851;SDS011;11592;45.460;9.240;2023-02-15T07:16:13;76.93;;;33.83;;
22851;SDS011;11592;45.460;9.240;2023-02-15T07:18:39;84.90;;;35.22;;
22851;SDS011;11592;45.460;9.240;2023-02-15T07:21:06;78.88;;;32.28;;
22851;SDS011;11592;45.460;9.240;2023-02-15T07:23:37;80.35;;;33.92;;
22851;SDS011;11592;45.460;9.240;2023-02-15T07:26:06;77.95;;;33.75;;
22851;SDS011;11592;45.460;9.240;2023-02-15T07:28:33;82.75;;;35.55;;
22851;SDS011;11592;45.460;9.240;2023-02-15T07:31:01;78.60;;;35.33;;
22851;SDS011;11592;45.460;9.240;2023-02-15T07:33:32;79.13;;;35.35;;
22851;SDS011;11592;45.460;9.240;2023-02-15T07:36:00;83.25;;;37.08;;
22851;SDS011;11592;45.460;9.240;2023-02-15T07:38:30;83.15;;;36.13;;
22851;SDS011;11592;45.460;9.240;2023-02-15T07:41:02;90.05;;;36.28;;
22851;SDS011;11592;45.460;9.240;2023-02-15T07:43:32;84.20;;;36.60;;
22851;SDS011;11592;45.460;9.240;2023-02-15T07:46:00;84.30;;;37.75;;
22851;SDS011;11592;45.460;9.240;2023-02-15T07:48:29;84.93;;;36.72;;
22851;SDS011;11592;45.460;9.240;2023-02-15T07:50:59;85.10;;;37.25;;
22851;SDS011;11592;45.460;9.240;2023-02-15T07:53:26;86.13;;;38.38;;
22851;SDS011;11592;45.460;9.240;2023-02-15T07:55:53;86.00;;;38.03;;
22851;SDS011;11592;45.460;9.240;2023-02-15T07:58:21;89.85;;;39.28;;
22851;SDS011;11592;45.460;9.240;2023-02-15T08:01:07;84.38;;;37.35;;
22851;SDS011;11592;45.460;9.240;2023-02-15T08:03:34;86.38;;;38.17;;
22851;SDS011;11592;45.460;9.240;2023-02-15T08:06:01;87.90;;;39.20;;
22851;SDS011;11592;45.460;9.240;2023-02-15T08:08:29;85.22;;;37.40;;
22851;SDS011;11592;45.460;9.240;2023-02-15T08:13:49;81.75;;;36.60;;
22851;SDS011;11592;45.460;9.240;2023-02-15T08:16:23;86.35;;;36.80;;
22851;SDS011;11592;45.460;9.240;2023-02-15T08:19:17;88.45;;;37.75;;
22851;SDS011;11592;45.460;9.240;2023-02-15T08:21:52;90.20;;;38.75;;
22851;SDS011;11592;45.460;9.240;2023-02-15T08:24:23;93.40;;;37.50;;
22851;SDS011;11592;45.460;9.240;2023-02-15T08:26:52;89.88;;;39.20;;
22851;SDS011;11592;45.460;9.240;2023-02-15T08:29:20;82.53;;;37.95;;
22851;SDS011;11592;45.460;9.240;2023-02-15T08:31:56;82.97;;;36.97;;
22851;SDS011;11592;45.460;9.240;2023-02-15T08:34:31;84.63;;;37.40;;
22851;SDS011;11592;45.460;9.240;2023-02-15T08:37:01;87.25;;;37.05;;
22851;SDS011;11592;45.460;9.240;2023-02-15T08:39:28;82.20;;;36.30;;
22851;SDS011;11592;45.460;9.240;2023-02-15T08:41:55;80.45;;;35.50;;
22851;SDS011;11592;45.460;9.240;2023-02-15T08:44:22;84.72;;;37.20;;
22851;SDS011;11592;45.460;9.240;2023-02-15T08:46:49;82.10;;;36.67;;
22851;SDS011;11592;45.460;9.240;2023-02-15T08:49:20;80.00;;;35.22;;
22851;SDS011;11592;45.460;9.240;2023-02-15T08:51:48;78.82;;;36.53;;
22851;SDS011;11592;45.460;9.240;2023-02-15T08:54:18;76.72;;;34.75;;
22851;SDS011;11592;45.460;9.240;2023-02-15T08:56:46;79.75;;;36.95;;
22851;SDS011;11592;45.460;9.240;2023-02-15T08:59:15;79.13;;;36.53;;
22851;SDS011;11592;45.460;9.240;2023-02-15T09:01:44;82.25;;;36.55;;
22851;SDS011;11592;45.460;9.240;2023-02-15T09:04:13;84.63;;;36.50;;
22851;SDS011;11592;45.460;9.240;2023-02-15T09:06:42;77.72;;;38.38;;
22851;SDS011;11592;45.460;9.240;2023-02-15T09:09:14;78.45;;;35.70;;
22851;SDS011;11592;45.460;9.240;2023-02-15T09:11:43;86.53;;;37.70;;
22851;SDS011;11592;45.460;9.240;2023-02-15T09:14:12;82.40;;;37.17;;
22851;SDS011;11592;45.460;9.240;2023-02-15T09:16:41;81.55;;;37.63;;
22851;SDS011;11592;45.460;9.240;2023-02-15T09:19:12;79.80;;;38.28;;
22851;SDS011;11592;45.460;9.240;2023-02-15T09:21:39;83.95;;;37.33;;
22851;SDS011;11592;45.460;9.240;2023-02-15T09:24:07;85.60;;;37.28;;
22851;SDS011;11592;45.460;9.240;2023-02-15T09:26:36;86.03;;;38.60;;
22851;SDS011;11592;45.460;9.240;2023-02-15T09:29:09;90.72;;;41.40;;
22851;SDS011;11592;45.460;9.240;2023-02-15T09:31:37;84.80;;;38.72;;
22851;SDS011;11592;45.460;9.240;2023-02-15T09:34:12;89.53;;;40.42;;
22851;SDS011;11592;45.460;9.240;2023-02-15T09:36:40;89.47;;;39.30;;
22851;SDS011;11592;45.460;9.240;2023-02-15T09:52:57;101.30;;;44.15;;
22851;SDS011;11592;45.460;9.240;2023-02-15T10:04:03;104.38;;;44.42;;
22851;SDS011;11592;45.460;9.240;2023-02-15T10:12:35;90.88;;;45.30;;
22851;SDS011;11592;45.460;9.240;2023-02-15T10:15:27;90.90;;;42.60;;
22851;SDS011;11592;45.460;9.240;2023-02-15T10:23:39;96.47;;;45.47;;
22851;SDS011;11592;45.460;9.240;2023-02-15T10:31:27;92.65;;;44.83;;
22851;SDS011;11592;45.460;9.240;2023-02-15T10:34:23;92.13;;;44.25;;
22851;SDS011;11592;45.460;9.240;2023-02-15T10:54:15;99.85;;;46.65;;
22851;SDS011;11592;45.460;9.240;2023-02-15T10:59:37;95.55;;;44.92;;
22851;SDS011;11592;45.460;9.240;2023-02-15T11:02:33;98.35;;;45.08;;
22851;SDS011;11592;45.460;9.240;2023-02-15T11:07:57;97.43;;;45.10;;
22851;SDS011;11592;45.460;9.240;2023-02-15T11:10:43;96.03;;;44.40;;
22851;SDS011;11592;45.460;9.240;2023-02-15T11:13:23;90.15;;;44.63;;
22851;SDS011;11592;45.460;9.240;2023-02-15T11:19:06;96.40;;;44.17;;
22851;SDS011;11592;45.460;9.240;2023-02-15T11:21:38;93.90;;;44.42;;
22851;SDS011;11592;45.460;9.240;2023-02-15T11:26:40;101.95;;;47.03;;
22851;SDS011;11592;45.460;9.240;2023-02-15T11:34:58;94.82;;;47.15;;
22851;SDS011;11592;45.460;9.240;2023-02-15T11:37:33;88.10;;;46.33;;
22851;SDS011;11592;45.460;9.240;2023-02-15T11:40:02;89.75;;;48.17;;
22851;SDS011;11592;45.460;9.240;2023-02-15T11:42:38;85.93;;;47.33;;
22851;SDS011;11592;45.460;9.240;2023-02-15T11:47:43;82.78;;;46.10;;
22851;SDS011;11592;45.460;9.240;2023-02-15T11:50:14;87.32;;;47.17;;
22851;SDS011;11592;45.460;9.240;2023-02-15T11:52:44;90.20;;;48.15;;
22851;SDS011;11592;45.460;9.240;2023-02-15T11:55:12;84.85;;;46.17;;
22851;SDS011;11592;45.460;9.240;2023-02-15T11:57:44;86.30;;;48.30;;
22851;SDS011;11592;45.460;9.240;2023-02-15T12:00:43;89.45;;;48.42;;
22851;SDS011;11592;45.460;9.240;2023-02-15T12:03:17;87.00;;;48.17;;
22851;SDS011;11592;45.460;9.240;2023-02-15T12:05:49;85.38;;;48.60;;
22851;SDS011;11592;45.460;9.240;2023-02-15T12:08:23;86.53;;;48.75;;
22851;SDS011;11592;45.460;9.240;2023-02-15T12:16:20;83.30;;;49.13;;
22851;SDS011;11592;45.460;9.240;2023-02-15T12:18:47;89.30;;;48.90;;
22851;SDS011;11592;45.460;9.240;2023-02-15T12:21:15;89.45;;;47.78;;
22851;SDS011;11592;45.460;9.240;2023-02-15T12:23:55;87.35;;;46.63;;
22851;SDS011;11592;45.460;9.240;2023-02-15T12:26:58;88.15;;;48.63;;
22851;SDS011;11592;45.460;9.240;2023-02-15T12:29:44;78.82;;;45.95;;
22851;SDS011;11592;45.460;9.240;2023-02-15T12:32:25;80.65;;;46.22;;
22851;SDS011;11592;45.460;9.240;2023-02-15T12:35:13;86.88;;;47.83;;
22851;SDS011;11592;45.460;9.240;2023-02-15T12:37:55;88.03;;;48.72;;
22851;SDS011;11592;45.460;9.240;2023-02-15T12:40:27;98.10;;;49.67;;
22851;SDS011;11592;45.460;9.240;2023-02-15T12:42:56;101.88;;;49.42;;
22851;SDS011;11592;45.460;9.240;2023-02-15T12:45:25;87.00;;;47.08;;
22851;SDS011;11592;45.460;9.240;2023-02-15T12:50:48;85.80;;;45.72;;
22851;SDS011;11592;45.460;9.240;2023-02-15T12:53:21;83.78;;;46.38;;
22851;SDS011;11592;45.460;9.240;2023-02-15T12:55:57;84.95;;;46.88;;
22851;SDS011;11592;45.460;9.240;2023-02-15T12:58:26;90.25;;;48.15;;
22851;SDS011;11592;45.460;9.240;2023-02-15T13:01:04;88.82;;;47.70;;
22851;SDS011;11592;45.460;9.240;2023-02-15T13:03:38;97.13;;;48.30;;
22851;SDS011;11592;45.460;9.240;2023-02-15T13:06:22;85.25;;;47.80;;
22851;SDS011;11592;45.460;9.240;2023-02-15T13:09:37;85.35;;;47.30;;
22851;SDS011;11592;45.460;9.240;2023-02-15T13:11:43;96.93;;;49.25;;
22851;SDS011;11592;45.460;9.240;2023-02-15T13:14:19;87.93;;;47.33;;
22851;SDS011;11592;45.460;9.240;2023-02-15T13:16:49;89.63;;;49.05;;
22851;SDS011;11592;45.460;9.240;2023-02-15T13:19:23;83.35;;;46.53;;
22851;SDS011;11592;45.460;9.240;2023-02-15T13:21:59;89.50;;;47.00;;
22851;SDS011;11592;45.460;9.240;2023-02-15T13:24:39;89.22;;;49.25;;
22851;SDS011;11592;45.460;9.240;2023-02-15T13:27:10;86.32;;;47.92;;
22851;SDS011;11592;45.460;9.240;2023-02-15T13:29:45;88.18;;;48.40;;
22851;SDS011;11592;45.460;9.240;2023-02-15T13:34:54;89.63;;;48.70;;
22851;SDS011;11592;45.460;9.240;2023-02-15T13:40:24;81.47;;;46.20;;
22851;SDS011;11592;45.460;9.240;2023-02-15T13:48:22;85.70;;;46.00;;
22851;SDS011;11592;45.460;9.240;2023-02-15T13:54:09;86.55;;;45.30;;
22851;SDS011;11592;45.460;9.240;2023-02-15T14:00:21;86.63;;;44.67;;
22851;SDS011;11592;45.460;9.240;2023-02-15T14:19:50;83.60;;;42.33;;
22851;SDS011;11592;45.460;9.240;2023-02-15T14:22:35;80.47;;;40.42;;
22851;SDS011;11592;45.460;9.240;2023-02-15T14:30:36;73.35;;;38.30;;
22851;SDS011;11592;45.460;9.240;2023-02-15T14:35:38;79.95;;;38.28;;
22851;SDS011;11592;45.460;9.240;2023-02-15T14:40:51;71.43;;;34.60;;
22851;SDS011;11592;45.460;9.240;2023-02-15T14:43:31;68.45;;;34.80;;
22851;SDS011;11592;45.460;9.240;2023-02-15T14:46:34;74.75;;;34.28;;
22851;SDS011;11592;45.460;9.240;2023-02-15T14:49:22;68.55;;;32.42;;
22851;SDS011;11592;45.460;9.240;2023-02-15T15:00:22;72.65;;;30.13;;
22851;SDS011;11592;45.460;9.240;2023-02-15T15:05:08;64.95;;;30.08;;
22851;SDS011;11592;45.460;9.240;2023-02-15T15:07:50;72.90;;;29.95;;
22851;SDS011;11592;45.460;9.240;2023-02-15T15:12:47;60.92;;;27.10;;
22851;SDS011;11592;45.460;9.240;2023-02-15T15:20:40;58.58;;;25.80;;
22851;SDS011;11592;45.460;9.240;2023-02-15T15:42:13;65.80;;;27.52;;
22851;SDS011;11592;45.460;9.240;2023-02-15T15:49:55;59.72;;;24.42;;
22851;SDS011;11592;45.460;9.240;2023-02-15T15:52:23;55.53;;;24.00;;
22851;SDS011;11592;45.460;9.240;2023-02-15T15:54:56;56.90;;;24.88;;
22851;SDS011;11592;45.460;9.240;2023-02-15T15:57:32;53.72;;;24.38;;
22851;SDS011;11592;45.460;9.240;2023-02-15T16:03:01;57.25;;;24.45;;
22851;SDS011;11592;45.460;9.240;2023-02-15T16:05:37;59.85;;;24.52;;
22851;SDS011;11592;45.460;9.240;2023-02-15T16:08:05;55.70;;;23.75;;
22851;SDS011;11592;45.460;9.240;2023-02-15T16:10:32;57.05;;;24.35;;
22851;SDS011;11592;45.460;9.240;2023-02-15T16:13:02;59.80;;;25.25;;
22851;SDS011;11592;45.460;9.240;2023-02-15T16:15:36;54.50;;;24.45;;
22851;SDS011;11592;45.460;9.240;2023-02-15T16:18:22;62.33;;;26.58;;
22851;SDS011;11592;45.460;9.240;2023-02-15T16:20:52;63.65;;;24.40;;
22851;SDS011;11592;45.460;9.240;2023-02-15T16:23:30;62.72;;;24.58;;
22851;SDS011;11592;45.460;9.240;2023-02-15T16:28:53;56.15;;;24.77;;
22851;SDS011;11592;45.460;9.240;2023-02-15T16:31:21;58.20;;;24.13;;
22851;SDS011;11592;45.460;9.240;2023-02-15T16:33:51;57.80;;;23.88;;
22851;SDS011;11592;45.460;9.240;2023-02-15T16:36:20;58.92;;;24.38;;
22851;SDS011;11592;45.460;9.240;2023-02-15T16:41:25;57.40;;;23.55;;
22851;SDS011;11592;45.460;9.240;2023-02-15T16:43:57;65.50;;;25.02;;
22851;SDS011;11592;45.460;9.240;2023-02-15T16:49:04;55.03;;;23.20;;
22851;SDS011;11592;45.460;9.240;2023-02-15T16:51:40;56.72;;;22.70;;
22851;SDS011;11592;45.460;9.240;2023-02-15T16:54:13;56.42;;;23.85;;
22851;SDS011;11592;45.460;9.240;2023-02-15T16:56:44;59.92;;;23.38;;
22851;SDS011;11592;45.460;9.240;2023-02-15T16:59:28;55.13;;;22.58;;
22851;SDS011;11592;45.460;9.240;2023-02-15T17:01:58;63.22;;;23.65;;
22851;SDS011;11592;45.460;9.240;2023-02-15T17:04:27;63.20;;;24.27;;
22851;SDS011;11592;45.460;9.240;2023-02-15T17:09:31;59.13;;;23.60;;
22851;SDS011;11592;45.460;9.240;2023-02-15T17:11:59;69.20;;;24.52;;
22851;SDS011;11592;45.460;9.240;2023-02-15T17:14:29;61.00;;;24.13;;
22851;SDS011;11592;45.460;9.240;2023-02-15T17:17:06;56.88;;;24.02;;
22851;SDS011;11592;45.460;9.240;2023-02-15T17:19:49;63.50;;;24.92;;
22851;SDS011;11592;45.460;9.240;2023-02-15T17:22:23;62.22;;;24.73;;
22851;SDS011;11592;45.460;9.240;2023-02-15T17:25:00;54.13;;;21.13;;
22851;SDS011;11592;45.460;9.240;2023-02-15T17:27:30;49.83;;;22.88;;
22851;SDS011;11592;45.460;9.240;2023-02-15T17:30:00;57.83;;;22.27;;
22851;SDS011;11592;45.460;9.240;2023-02-15T17:33:01;50.53;;;21.90;;
22851;SDS011;11592;45.460;9.240;2023-02-15T17:35:30;55.28;;;22.08;;
22851;SDS011;11592;45.460;9.240;2023-02-15T17:38:00;56.47;;;22.17;;
22851;SDS011;11592;45.460;9.240;2023-02-15T17:40:30;54.20;;;21.15;;
22851;SDS011;11592;45.460;9.240;2023-02-15T17:42:59;50.10;;;21.15;;
22851;SDS011;11592;45.460;9.240;2023-02-15T17:45:33;57.58;;;21.35;;
22851;SDS011;11592;45.460;9.240;2023-02-15T17:48:04;57.40;;;21.85;;
22851;SDS011;11592;45.460;9.240;2023-02-15T17:50:32;54.80;;;22.38;;
22851;SDS011;11592;45.460;9.240;2023-02-15T17:52:59;50.20;;;21.08;;
22851;SDS011;11592;45.460;9.240;2023-02-15T17:55:27;52.42;;;22.88;;
22851;SDS011;11592;45.460;9.240;2023-02-15T17:58:09;59.70;;;21.80;;
22851;SDS011;11592;45.460;9.240;2023-02-15T18:00:39;54.58;;;22.42;;
22851;SDS011;11592;45.460;9.240;2023-02-15T18:03:51;51.88;;;22.42;;
22851;SDS011;11592;45.460;9.240;2023-02-15T18:06:37;59.05;;;21.38;;
22851;SDS011;11592;45.460;9.240;2023-02-15T18:09:24;51.13;;;21.55;;
22851;SDS011;11592;45.460;9.240;2023-02-15T18:12:23;52.55;;;21.73;;
22851;SDS011;11592;45.460;9.240;2023-02-15T18:14:54;53.80;;;22.15;;
22851;SDS011;11592;45.460;9.240;2023-02-15T18:17:26;55.22;;;22.23;;
22851;SDS011;11592;45.460;9.240;2023-02-15T18:19:56;60.42;;;22.45;;
22851;SDS011;11592;45.460;9.240;2023-02-15T18:22:23;66.07;;;24.27;;
22851;SDS011;11592;45.460;9.240;2023-02-15T18:24:50;54.15;;;22.63;;
22851;SDS011;11592;45.460;9.240;2023-02-15T18:27:16;63.40;;;24.05;;
22851;SDS011;11592;45.460;9.240;2023-02-15T18:29:43;59.78;;;23.20;;
22851;SDS011;11592;45.460;9.240;2023-02-15T18:32:14;56.08;;;22.80;;
22851;SDS011;11592;45.460;9.240;2023-02-15T18:34:44;58.17;;;23.08;;
22851;SDS011;11592;45.460;9.240;2023-02-15T18:37:15;61.25;;;22.77;;
22851;SDS011;11592;45.460;9.240;2023-02-15T18:39:45;56.78;;;23.33;;